createdAt,value
2019-03-23T00:01:08.824Z,10.30
2019-03-23T00:05:20.418Z,10.30
2019-03-23T00:09:31.681Z,10.20
2019-03-23T00:13:41.991Z,10.30
2019-03-23T00:17:53.333Z,10.30
2019-03-23T00:22:04.734Z,10.30
2019-03-23T00:26:15.835Z,10.20
2019-03-23T00:30:27.014Z,10.20
2019-03-23T00:34:38.130Z,10.10
2019-03-23T00:38:49.259Z,10.10
2019-03-23T00:43:00.466Z,10.10
2019-03-23T00:47:11.628Z,10.10
2019-03-23T00:51:22.911Z,10.00
2019-03-23T00:55:34.084Z,9.90
2019-03-23T00:59:45.133Z,9.80
2019-03-23T01:03:56.362Z,9.70
2019-03-23T01:08:07.602Z,9.80
2019-03-23T01:12:18.717Z,9.80
2019-03-23T01:16:30.084Z,9.70
2019-03-23T01:20:49.365Z,9.70
2019-03-23T01:24:53.977Z,9.60
2019-03-23T01:29:05.178Z,9.60
2019-03-23T01:33:16.296Z,9.50
2019-03-23T01:37:27.452Z,9.50
2019-03-23T01:41:38.574Z,9.50
2019-03-23T01:45:49.682Z,9.50
2019-03-23T01:50:01.391Z,9.40
2019-03-23T01:54:12.657Z,9.40
2019-03-23T01:58:23.994Z,9.40
2019-03-23T02:02:35.171Z,9.40
2019-03-23T02:06:46.499Z,9.30
2019-03-23T02:10:57.758Z,9.30
2019-03-23T02:15:10.798Z,9.30
2019-03-23T02:19:21.937Z,9.30
2019-03-23T02:23:33.011Z,9.30
2019-03-23T02:27:44.204Z,9.30
2019-03-23T02:31:55.048Z,9.20
2019-03-23T02:36:05.730Z,9.20
2019-03-23T02:40:16.914Z,9.10
2019-03-23T02:44:28.237Z,9.00
2019-03-23T02:48:39.058Z,9.00
2019-03-23T02:52:50.252Z,9.00
2019-03-23T02:57:01.315Z,9.00
2019-03-23T03:01:12.580Z,8.90
2019-03-23T03:05:23.582Z,8.90
2019-03-23T03:09:35.049Z,8.90
2019-03-23T03:13:46.304Z,8.80
2019-03-23T03:17:57.502Z,8.80
2019-03-23T03:22:08.708Z,8.80
2019-03-23T03:26:19.998Z,8.80
2019-03-23T03:30:31.247Z,8.70
2019-03-23T03:34:42.410Z,8.70
2019-03-23T03:38:53.631Z,8.70
2019-03-23T03:43:05.014Z,8.70
2019-03-23T03:47:15.107Z,8.70
2019-03-23T03:51:26.267Z,8.70
2019-03-23T03:55:38.184Z,8.70
2019-03-23T03:59:49.648Z,8.60
2019-03-23T04:04:00.477Z,8.60
2019-03-23T04:08:12.249Z,8.60
2019-03-23T04:12:23.610Z,8.60
2019-03-23T04:16:34.852Z,8.70
2019-03-23T04:20:45.691Z,8.60
2019-03-23T04:24:58.310Z,8.70
2019-03-23T04:29:09.594Z,8.70
2019-03-23T04:33:20.282Z,8.70
2019-03-23T04:37:31.639Z,8.60
2019-03-23T04:41:43.059Z,8.60
2019-03-23T04:45:54.266Z,8.50
2019-03-23T04:50:07.459Z,8.50
2019-03-23T04:54:18.639Z,8.50
2019-03-23T04:58:29.992Z,8.40
2019-03-23T05:02:41.341Z,8.30
2019-03-23T05:06:52.546Z,8.20
2019-03-23T05:11:03.830Z,8.20
2019-03-23T05:15:15.369Z,8.10
2019-03-23T05:19:26.821Z,8.10
2019-03-23T05:23:39.804Z,8.30
2019-03-23T05:27:50.479Z,8.60
2019-03-23T05:32:01.580Z,8.80
2019-03-23T05:36:15.221Z,9.00
2019-03-23T05:40:25.233Z,9.30
2019-03-23T05:44:36.544Z,9.40
2019-03-23T05:48:47.670Z,9.40
2019-03-23T05:52:58.871Z,9.20
2019-03-23T05:57:10.154Z,9.00
2019-03-23T06:01:21.469Z,8.80
2019-03-23T06:05:32.683Z,8.80
2019-03-23T06:09:43.368Z,8.80
2019-03-23T06:13:54.997Z,8.80
2019-03-23T06:18:06.165Z,8.90
2019-03-23T06:22:16.354Z,9.00
2019-03-23T06:26:28.175Z,9.10
2019-03-23T06:30:40.098Z,9.30
2019-03-23T06:34:52.017Z,9.50
2019-03-23T06:39:05.739Z,10.00
2019-03-23T06:43:16.816Z,11.00
2019-03-23T06:47:28.016Z,12.00
2019-03-23T06:51:39.412Z,12.70
2019-03-23T06:55:50.514Z,13.20
2019-03-23T07:00:01.531Z,13.60
2019-03-23T07:04:12.690Z,13.80
2019-03-23T07:08:32.023Z,14.00
2019-03-23T07:12:37.030Z,14.40
2019-03-23T07:16:48.128Z,14.80
2019-03-23T07:20:59.225Z,14.90
2019-03-23T07:25:13.759Z,14.80
2019-03-23T07:29:24.667Z,14.80
2019-03-23T07:33:36.069Z,14.90
2019-03-23T07:37:47.331Z,15.10
2019-03-23T07:41:58.684Z,15.30
2019-03-23T07:46:10.105Z,15.60
2019-03-23T07:50:21.438Z,15.60
2019-03-23T07:54:32.916Z,15.70
2019-03-23T07:58:44.288Z,16.00
2019-03-23T08:02:55.679Z,16.10
2019-03-23T08:07:07.129Z,16.20
2019-03-23T08:11:18.470Z,16.60
2019-03-23T08:15:30.055Z,16.60
2019-03-23T08:19:41.385Z,16.90
2019-03-23T08:23:54.271Z,17.00
2019-03-23T08:28:04.650Z,17.10
2019-03-23T08:32:15.824Z,17.20
2019-03-23T08:36:26.934Z,17.00
2019-03-23T08:40:39.280Z,16.90
2019-03-23T08:44:50.743Z,17.20
2019-03-23T08:49:01.995Z,17.50
2019-03-23T08:53:13.210Z,17.60
2019-03-23T08:57:24.343Z,17.90
2019-03-23T09:01:36.881Z,18.20
2019-03-23T09:05:47.906Z,18.30
2019-03-23T09:09:59.630Z,18.70
2019-03-23T09:14:10.787Z,19.10
2019-03-23T09:18:21.772Z,19.30
2019-03-23T09:22:32.920Z,19.30
2019-03-23T09:26:44.797Z,19.50
2019-03-23T09:30:55.922Z,19.40
2019-03-23T09:35:07.329Z,19.60
2019-03-23T09:39:18.891Z,19.90
2019-03-23T09:43:30.276Z,20.40
2019-03-23T09:47:41.372Z,20.40
2019-03-23T09:51:52.614Z,20.80
2019-03-23T09:56:03.798Z,21.10
2019-03-23T10:00:15.345Z,21.70
2019-03-23T10:04:28.181Z,21.70
2019-03-23T10:08:39.866Z,21.50
2019-03-23T10:12:51.026Z,21.70
2019-03-23T10:17:02.263Z,21.50
2019-03-23T10:21:13.447Z,21.90
2019-03-23T10:25:26.708Z,21.90
2019-03-23T10:29:37.766Z,21.60
2019-03-23T10:33:48.835Z,21.50
2019-03-23T10:38:00.389Z,21.70
2019-03-23T10:42:11.630Z,22.00
2019-03-23T10:46:25.081Z,22.30
2019-03-23T10:50:35.694Z,22.40
2019-03-23T10:54:47.103Z,22.30
2019-03-23T10:58:58.255Z,22.60
2019-03-23T11:03:09.515Z,22.20
2019-03-23T11:07:20.872Z,21.90
2019-03-23T11:11:33.846Z,22.00
2019-03-23T11:15:45.425Z,22.30
2019-03-23T11:19:58.440Z,22.50
2019-03-23T11:24:09.495Z,23.00
2019-03-23T11:28:22.278Z,23.20
2019-03-23T11:32:34.096Z,23.50
2019-03-23T11:36:45.243Z,24.00
2019-03-23T11:40:56.357Z,24.10
2019-03-23T11:45:08.292Z,23.40
2019-03-23T11:49:19.321Z,22.90
2019-03-23T11:53:30.339Z,22.90
2019-03-23T11:57:41.402Z,23.60
2019-03-23T12:01:53.913Z,23.90
2019-03-23T12:06:05.020Z,24.70
2019-03-23T12:10:17.779Z,24.70
2019-03-23T12:14:29.233Z,24.40
2019-03-23T12:18:40.457Z,24.20
2019-03-23T12:22:51.470Z,24.30
2019-03-23T12:27:03.279Z,24.50
2019-03-23T12:31:14.524Z,23.00
2019-03-23T12:35:25.611Z,22.00
2019-03-23T12:39:36.852Z,21.70
2019-03-23T12:43:49.537Z,21.40
2019-03-23T12:48:01.420Z,21.50
2019-03-23T12:52:13.644Z,21.40
2019-03-23T12:56:24.762Z,20.90
2019-03-23T13:00:39.318Z,20.70
2019-03-23T13:04:51.027Z,20.50
2019-03-23T13:09:02.061Z,20.20
2019-03-23T13:13:16.919Z,20.10
2019-03-23T13:17:28.079Z,19.90
2019-03-23T13:21:39.315Z,19.70
2019-03-23T13:25:52.224Z,19.60
2019-03-23T13:30:02.400Z,19.50
2019-03-23T13:34:14.796Z,19.40
2019-03-23T13:38:25.495Z,19.30
2019-03-23T13:42:36.572Z,19.20
2019-03-23T13:46:47.302Z,19.30
2019-03-23T13:50:58.486Z,19.00
2019-03-23T13:55:13.832Z,19.00
2019-03-23T13:59:25.146Z,18.80
2019-03-23T14:03:37.383Z,18.90
2019-03-23T14:07:48.495Z,18.80
2019-03-23T14:12:00.364Z,18.60
2019-03-23T14:16:13.125Z,18.40
2019-03-23T14:20:24.288Z,18.00
2019-03-23T14:24:35.341Z,17.80
2019-03-23T14:28:46.567Z,17.40
2019-03-23T14:32:57.688Z,17.00
2019-03-23T14:37:10.287Z,16.90
2019-03-23T14:41:20.495Z,16.60
2019-03-23T14:45:31.612Z,16.50
2019-03-23T14:49:42.693Z,16.40
2019-03-23T14:53:53.759Z,15.90
2019-03-23T14:58:04.998Z,15.80
2019-03-23T15:02:16.132Z,15.70
2019-03-23T15:06:27.146Z,15.60
2019-03-23T15:10:38.440Z,15.50
2019-03-23T15:14:49.668Z,15.30
2019-03-23T15:19:00.706Z,15.20
2019-03-23T15:23:11.714Z,15.10
2019-03-23T15:27:22.782Z,15.00
2019-03-23T15:31:34.331Z,14.80
2019-03-23T15:35:46.448Z,14.50
2019-03-23T15:39:57.695Z,14.40
2019-03-23T15:44:09.287Z,14.20
2019-03-23T15:48:21.479Z,14.00
2019-03-23T15:52:32.687Z,14.30
2019-03-23T15:56:45.420Z,14.20
2019-03-23T16:00:57.766Z,13.90
2019-03-23T16:05:09.565Z,13.70
2019-03-23T16:09:21.032Z,13.60
2019-03-23T16:13:31.938Z,13.60
2019-03-23T16:17:43.383Z,13.40
2019-03-23T16:21:54.680Z,13.10
2019-03-23T16:26:06.409Z,13.10
2019-03-23T16:30:20.734Z,13.00
2019-03-23T16:34:32.623Z,12.90
2019-03-23T16:38:44.896Z,12.70
2019-03-23T16:42:56.618Z,12.80
2019-03-23T16:47:07.682Z,12.70
2019-03-23T16:51:18.970Z,12.40
2019-03-23T16:55:31.672Z,12.30
2019-03-23T16:59:44.452Z,12.10
2019-03-23T17:03:54.697Z,12.00
2019-03-23T17:08:06.553Z,11.90
2019-03-23T17:12:18.455Z,11.80
2019-03-23T17:16:31.031Z,11.70
2019-03-23T17:20:42.225Z,11.60
2019-03-23T17:24:53.307Z,11.60
2019-03-23T17:29:04.505Z,11.50
2019-03-23T17:33:15.242Z,11.40
2019-03-23T17:37:26.927Z,11.30
2019-03-23T17:41:38.191Z,11.10
2019-03-23T17:45:49.416Z,11.10
2019-03-23T17:50:00.802Z,11.00
2019-03-23T17:54:11.930Z,10.90
2019-03-23T17:58:23.690Z,10.80
2019-03-23T18:02:34.910Z,10.70
2019-03-23T18:06:46.087Z,10.70
2019-03-23T18:10:57.246Z,10.60
2019-03-23T18:15:09.797Z,10.50
2019-03-23T18:19:20.865Z,10.40
2019-03-23T18:23:32.224Z,10.40
2019-03-23T18:27:43.344Z,10.30
2019-03-23T18:31:54.411Z,10.30
2019-03-23T18:36:04.539Z,10.20
2019-03-23T18:40:16.151Z,10.10
2019-03-23T18:44:27.420Z,10.10
2019-03-23T18:48:38.568Z,10.10
2019-03-23T18:52:49.599Z,10.00
2019-03-23T18:57:00.604Z,9.90
2019-03-23T19:01:12.411Z,9.80
2019-03-23T19:05:25.656Z,9.80
2019-03-23T19:09:37.074Z,9.70
2019-03-23T19:13:48.080Z,9.70
2019-03-23T19:18:02.049Z,9.70
2019-03-23T19:22:13.203Z,9.70
2019-03-23T19:26:24.263Z,9.60
2019-03-23T19:30:37.059Z,9.50
2019-03-23T19:34:51.086Z,9.40
2019-03-23T19:39:04.881Z,9.30
2019-03-23T19:43:17.502Z,9.20
2019-03-23T19:47:28.608Z,9.10
2019-03-23T19:51:39.886Z,9.00
2019-03-23T19:55:51.969Z,9.00
2019-03-23T20:00:03.590Z,9.00
2019-03-23T20:04:16.191Z,8.90
2019-03-23T20:08:28.840Z,8.90
2019-03-23T20:12:41.135Z,8.80
2019-03-23T20:16:52.230Z,8.70
2019-03-23T20:21:03.517Z,8.70
2019-03-23T20:25:14.802Z,8.70
2019-03-23T20:29:26.164Z,8.70
2019-03-23T20:33:37.503Z,8.60
2019-03-23T20:37:48.664Z,8.60
2019-03-23T20:41:59.775Z,8.60
2019-03-23T20:46:10.001Z,8.50
2019-03-23T20:50:22.690Z,8.50
2019-03-23T20:54:42.222Z,8.60
2019-03-23T20:58:54.775Z,8.50
2019-03-23T21:03:05.674Z,8.50
2019-03-23T21:07:16.759Z,8.50
2019-03-23T21:11:29.548Z,8.40
2019-03-23T21:15:40.611Z,8.30
2019-03-23T21:19:51.631Z,8.30
2019-03-23T21:24:02.761Z,8.40
2019-03-23T21:28:13.877Z,8.40
2019-03-23T21:32:25.100Z,8.40
2019-03-23T21:36:37.820Z,8.40
2019-03-23T21:40:50.561Z,8.40
2019-03-23T21:45:02.149Z,8.30
2019-03-23T21:49:13.262Z,8.20
2019-03-23T21:53:26.395Z,8.20
2019-03-23T21:57:37.425Z,8.10
2019-03-23T22:01:48.384Z,8.20
2019-03-23T22:06:00.286Z,8.20
2019-03-23T22:10:11.519Z,8.20
2019-03-23T22:14:22.561Z,8.30
2019-03-23T22:18:33.689Z,8.40
2019-03-23T22:22:46.447Z,8.50
2019-03-23T22:26:57.458Z,8.40
2019-03-23T22:31:08.600Z,8.50
2019-03-23T22:35:20.214Z,8.50
2019-03-23T22:39:33.050Z,8.50
2019-03-23T22:43:45.628Z,8.50
2019-03-23T22:47:56.655Z,8.50
2019-03-23T22:52:07.693Z,8.60
2019-03-23T22:56:18.893Z,8.60
2019-03-23T23:00:34.479Z,8.60
2019-03-23T23:04:47.146Z,8.70
2019-03-23T23:08:58.330Z,8.70
2019-03-23T23:13:10.520Z,8.70
2019-03-23T23:17:21.529Z,8.70
2019-03-23T23:21:32.699Z,8.60
2019-03-23T23:25:46.019Z,8.60
2019-03-23T23:29:57.047Z,8.60
2019-03-23T23:34:08.603Z,8.60
2019-03-23T23:38:21.202Z,8.70
2019-03-23T23:42:33.794Z,8.70
2019-03-23T23:46:45.036Z,8.70
2019-03-23T23:50:57.684Z,8.80
2019-03-23T23:55:10.304Z,8.80
2019-03-23T23:59:23.302Z,8.80
